Brookley Field, Alabama
Current Conditions -  °F | °C
As of 12:53 AM on Saturday 20 Dec 2014 (Local Time) from KBFM Reporting Station
Overcast Overcast  
Wind Chill: 45°   Ceiling: 700
Heat Index: 49°   Visibility: 10mi
Dew Point: 46°   Wind: 10mph
Humidity: 90%   Direction: 30°NNE
Pressure: 30.09"   Gusts: NA
Location:  30.641°N, 88.065°W
Report Text: KBFM 200653Z AUTO 03009KT 10SM OVC007 09/08 A3009 RMK AO2 CIG 005V012 SLP190 T00940078
Loading
Personal Weather Stations






























Interactive Weather Map New forecast layout! Learn more

10-Day Weather Forecast

Advertisements
Track Severe Weather on mobile